CCA821 VNKT-ZULS
Flight info
| Callsign | CCA821 |
|---|---|
| Flight time | 0h 57m |
| Altitude | 37000 |
| Route | KIMTI B345 NONIM/K0845S1130 B345 RKZ DCT IKUBI |
| Aircraft | B738/M-SDE2E3FGHIRWXY/LB1 |
Departure
| Time | 2026-04-26 13:49 |
|---|---|
| Airport | Tribhuvan International Airport (VNKT) |
Arrival
| Time | 2026-04-26 14:47 |
|---|---|
| Airport | Lhasa Gonggar International Airport (ZULS) |
| Time | Latitude | Longitude | Altitude | Speed | Heading |
|---|---|---|---|---|---|
| 2026-04-26 13:05 | 27.70027 | 85.35862 | 4439 ft | 0 kts | 291° |
| 2026-04-26 13:38 | 27.70022 | 85.35877 | 4438 ft | 2 kts | 291° |
| 2026-04-26 13:39 | 27.70016 | 85.35892 | 4438 ft | 2 kts | 291° |
| 2026-04-26 13:39 | 27.70011 | 85.35908 | 4438 ft | 2 kts | 291° |
| 2026-04-26 13:39 | 27.70007 | 85.35918 | 4438 ft | 2 kts | 291° |
| 2026-04-26 13:39 | 27.70006 | 85.35935 | 4438 ft | 2 kts | 248° |
| 2026-04-26 13:40 | 27.70015 | 85.35949 | 4438 ft | 2 kts | 213° |
| 2026-04-26 13:40 | 27.70021 | 85.35953 | 4438 ft | 1 kts | 196° |
| 2026-04-26 13:40 | 27.70025 | 85.35954 | 4438 ft | 0 kts | 201° |
| 2026-04-26 13:41 | 27.70023 | 85.35953 | 4438 ft | 1 kts | 199° |
| 2026-04-26 13:42 | 27.69993 | 85.35945 | 4437 ft | 7 kts | 192° |
| 2026-04-26 13:42 | 27.69918 | 85.35918 | 4434 ft | 13 kts | 202° |
| 2026-04-26 13:42 | 27.69820 | 85.35873 | 4431 ft | 16 kts | 201° |
| 2026-04-26 13:42 | 27.69703 | 85.35820 | 4426 ft | 19 kts | 203° |
| 2026-04-26 13:43 | 27.69573 | 85.35758 | 4419 ft | 22 kts | 204° |
| 2026-04-26 13:43 | 27.69409 | 85.35685 | 4403 ft | 29 kts | 203° |
| 2026-04-26 13:43 | 27.69241 | 85.35605 | 4393 ft | 20 kts | 204° |
| 2026-04-26 13:43 | 27.69126 | 85.35560 | 4385 ft | 12 kts | 190° |
| 2026-04-26 13:44 | 27.69102 | 85.35558 | 4384 ft | 0 kts | 175° |
| 2026-04-26 13:44 | 27.69101 | 85.35558 | 4384 ft | 0 kts | 175° |
| 2026-04-26 13:44 | 27.69091 | 85.35560 | 4384 ft | 3 kts | 160° |
| 2026-04-26 13:44 | 27.69048 | 85.35611 | 4385 ft | 12 kts | 128° |
| 2026-04-26 13:45 | 27.68960 | 85.35603 | 4382 ft | 18 kts | 202° |
| 2026-04-26 13:45 | 27.68810 | 85.35535 | 4376 ft | 27 kts | 201° |
| 2026-04-26 13:45 | 27.68619 | 85.35448 | 4368 ft | 28 kts | 202° |
| 2026-04-26 13:45 | 27.68481 | 85.35371 | 4366 ft | 13 kts | 232° |
| 2026-04-26 13:46 | 27.68429 | 85.35307 | 4365 ft | 10 kts | 187° |
| 2026-04-26 13:46 | 27.68399 | 85.35342 | 4365 ft | 6 kts | 75° |
| 2026-04-26 13:46 | 27.68426 | 85.35362 | 4365 ft | 3 kts | 19° |
| 2026-04-26 13:46 | 27.68429 | 85.35362 | 4365 ft | 0 kts | 21° |
| 2026-04-26 13:48 | 27.68430 | 85.35363 | 4365 ft | 1 kts | 21° |
| 2026-04-26 13:48 | 27.68494 | 85.35392 | 4366 ft | 27 kts | 21° |
| 2026-04-26 13:49 | 27.68910 | 85.35581 | 4380 ft | 98 kts | 22° |
| 2026-04-26 13:49 | 27.69745 | 85.35961 | 4428 ft | 156 kts | 21° |
| 2026-04-26 13:49 | 27.70933 | 85.36498 | 4539 ft | 199 kts | 22° |
| 2026-04-26 13:49 | 27.72266 | 85.37101 | 5094 ft | 213 kts | 21° |
| 2026-04-26 13:50 | 27.73645 | 85.37700 | 5928 ft | 218 kts | 27° |
| 2026-04-26 13:50 | 27.74821 | 85.38908 | 6136 ft | 244 kts | 57° |
| 2026-04-26 13:50 | 27.75500 | 85.40607 | 7034 ft | 238 kts | 74° |
| 2026-04-26 13:50 | 27.75501 | 85.42538 | 7455 ft | 256 kts | 107° |
| 2026-04-26 13:51 | 27.74682 | 85.44314 | 8162 ft | 260 kts | 128° |
| 2026-04-26 13:51 | 27.73393 | 85.45774 | 8839 ft | 264 kts | 143° |
| 2026-04-26 13:51 | 27.71794 | 85.46790 | 9501 ft | 268 kts | 158° |
| 2026-04-26 13:51 | 27.70031 | 85.47560 | 10135 ft | 273 kts | 160° |
| 2026-04-26 13:52 | 27.68236 | 85.48334 | 10688 ft | 282 kts | 159° |
| 2026-04-26 13:52 | 27.66434 | 85.49329 | 11211 ft | 295 kts | 147° |
| 2026-04-26 13:52 | 27.64849 | 85.50882 | 11712 ft | 308 kts | 130° |
| 2026-04-26 13:52 | 27.63612 | 85.52922 | 12184 ft | 321 kts | 116° |
| 2026-04-26 13:53 | 27.62717 | 85.55252 | 12583 ft | 335 kts | 108° |
| 2026-04-26 13:53 | 27.61973 | 85.57790 | 13008 ft | 348 kts | 105° |
| 2026-04-26 13:53 | 27.61275 | 85.60461 | 13383 ft | 362 kts | 104° |
| 2026-04-26 13:53 | 27.60573 | 85.63226 | 13760 ft | 375 kts | 104° |
| 2026-04-26 13:54 | 27.59871 | 85.65966 | 14114 ft | 389 kts | 105° |
| 2026-04-26 13:54 | 27.59059 | 85.68934 | 14500 ft | 400 kts | 107° |
| 2026-04-26 13:54 | 27.58039 | 85.71883 | 15243 ft | 402 kts | 112° |
| 2026-04-26 13:55 | 27.55570 | 85.77573 | 16615 ft | 405 kts | 115° |
| 2026-04-26 13:55 | 27.54698 | 85.79457 | 16979 ft | 409 kts | 115° |
| 2026-04-26 13:55 | 27.51721 | 85.86328 | 18237 ft | 419 kts | 107° |
| 2026-04-26 13:56 | 27.51017 | 85.89497 | 18764 ft | 419 kts | 95° |
| 2026-04-26 13:56 | 27.50823 | 85.92728 | 19378 ft | 419 kts | 89° |
| 2026-04-26 13:56 | 27.50740 | 85.96036 | 19905 ft | 423 kts | 89° |
| 2026-04-26 13:56 | 27.50656 | 85.99364 | 20507 ft | 426 kts | 89° |
| 2026-04-26 13:57 | 27.50562 | 86.02708 | 21027 ft | 430 kts | 89° |
| 2026-04-26 13:57 | 27.50457 | 86.06067 | 21611 ft | 432 kts | 89° |
| 2026-04-26 13:57 | 27.50340 | 86.09500 | 22009 ft | 439 kts | 90° |
| 2026-04-26 13:57 | 27.50217 | 86.12972 | 22463 ft | 444 kts | 90° |
| 2026-04-26 13:58 | 27.50088 | 86.16433 | 22994 ft | 447 kts | 90° |
| 2026-04-26 13:58 | 27.49954 | 86.19926 | 23563 ft | 448 kts | 90° |
| 2026-04-26 13:58 | 27.49809 | 86.23470 | 24054 ft | 452 kts | 91° |
| 2026-04-26 13:58 | 27.49546 | 86.26997 | 24453 ft | 458 kts | 95° |
| 2026-04-26 13:59 | 27.49068 | 86.30582 | 24856 ft | 463 kts | 98° |
| 2026-04-26 13:59 | 27.48451 | 86.34153 | 25309 ft | 467 kts | 100° |
| 2026-04-26 13:59 | 27.47769 | 86.37708 | 25833 ft | 468 kts | 101° |
| 2026-04-26 14:00 | 27.45614 | 86.48461 | 27073 ft | 480 kts | 101° |
| 2026-04-26 14:00 | 27.44883 | 86.52097 | 27415 ft | 484 kts | 101° |
| 2026-04-26 14:00 | 27.44381 | 86.54601 | 27725 ft | 486 kts | 101° |
| 2026-04-26 14:01 | 27.43394 | 86.59574 | 28378 ft | 487 kts | 101° |
| 2026-04-26 14:01 | 27.42662 | 86.63284 | 28689 ft | 492 kts | 101° |
| 2026-04-26 14:01 | 27.41921 | 86.67066 | 28998 ft | 496 kts | 102° |
| 2026-04-26 14:01 | 27.41179 | 86.70863 | 29405 ft | 498 kts | 101° |
| 2026-04-26 14:02 | 27.40432 | 86.74692 | 29933 ft | 497 kts | 101° |
| 2026-04-26 14:02 | 27.39699 | 86.78442 | 30524 ft | 494 kts | 101° |
| 2026-04-26 14:02 | 27.38988 | 86.82083 | 31066 ft | 492 kts | 101° |
| 2026-04-26 14:02 | 27.38225 | 86.85984 | 31566 ft | 491 kts | 101° |
| 2026-04-26 14:03 | 27.37492 | 86.89724 | 32019 ft | 490 kts | 102° |
| 2026-04-26 14:03 | 27.36761 | 86.93440 | 32424 ft | 491 kts | 102° |
| 2026-04-26 14:03 | 27.36020 | 86.97219 | 32728 ft | 493 kts | 101° |
| 2026-04-26 14:03 | 27.35287 | 87.00999 | 33037 ft | 495 kts | 100° |
| 2026-04-26 14:04 | 27.34750 | 87.04815 | 33305 ft | 496 kts | 95° |
| 2026-04-26 14:04 | 27.34541 | 87.08696 | 33648 ft | 496 kts | 88° |
| 2026-04-26 14:04 | 27.34674 | 87.12551 | 34023 ft | 494 kts | 82° |
| 2026-04-26 14:04 | 27.35150 | 87.16383 | 34458 ft | 491 kts | 76° |
| 2026-04-26 14:05 | 27.35971 | 87.20149 | 35004 ft | 484 kts | 70° |
| 2026-04-26 14:05 | 27.37076 | 87.23676 | 35345 ft | 482 kts | 65° |
| 2026-04-26 14:05 | 27.38493 | 87.27068 | 35701 ft | 479 kts | 58° |
| 2026-04-26 14:05 | 27.40218 | 87.30303 | 35965 ft | 477 kts | 52° |
| 2026-04-26 14:06 | 27.42187 | 87.33255 | 36345 ft | 472 kts | 46° |
| 2026-04-26 14:06 | 27.44432 | 87.35992 | 36643 ft | 470 kts | 40° |
| 2026-04-26 14:06 | 27.46884 | 87.38425 | 36812 ft | 469 kts | 34° |
| 2026-04-26 14:06 | 27.49532 | 87.40544 | 37051 ft | 467 kts | 28° |
| 2026-04-26 14:07 | 27.52330 | 87.42323 | 37290 ft | 464 kts | 22° |
| 2026-04-26 14:07 | 27.55312 | 87.43776 | 37598 ft | 460 kts | 15° |
| 2026-04-26 14:07 | 27.58348 | 87.44849 | 37798 ft | 458 kts | 9° |
| 2026-04-26 14:07 | 27.61490 | 87.45405 | 37853 ft | 447 kts | 354° |
| 2026-04-26 14:08 | 27.64505 | 87.44846 | 37873 ft | 432 kts | 336° |
| 2026-04-26 14:08 | 27.69906 | 87.42084 | 37882 ft | 426 kts | 332° |
| 2026-04-26 14:09 | 27.75667 | 87.40221 | 37970 ft | 437 kts | 352° |
| 2026-04-26 14:09 | 27.78760 | 87.40486 | 37990 ft | 449 kts | 10° |
| 2026-04-26 14:09 | 27.81680 | 87.41872 | 37995 ft | 462 kts | 28° |
| 2026-04-26 14:09 | 27.84201 | 87.44114 | 38016 ft | 471 kts | 40° |
| 2026-04-26 14:10 | 27.86487 | 87.46785 | 38032 ft | 472 kts | 43° |
| 2026-04-26 14:10 | 27.91035 | 87.52282 | 38055 ft | 474 kts | 43° |
| 2026-04-26 14:11 | 27.97640 | 87.60191 | 38080 ft | 473 kts | 43° |
| 2026-04-26 14:11 | 28.02174 | 87.65583 | 38070 ft | 470 kts | 43° |
| 2026-04-26 14:12 | 28.06570 | 87.70806 | 38040 ft | 471 kts | 43° |
| 2026-04-26 14:12 | 28.11115 | 87.76212 | 38036 ft | 472 kts | 43° |
| 2026-04-26 14:13 | 28.17853 | 87.84248 | 38014 ft | 470 kts | 43° |
| 2026-04-26 14:14 | 28.22374 | 87.89645 | 38059 ft | 470 kts | 43° |
| 2026-04-26 14:14 | 28.26889 | 87.95042 | 38022 ft | 469 kts | 43° |
| 2026-04-26 14:15 | 28.31388 | 88.00425 | 38000 ft | 470 kts | 43° |
| 2026-04-26 14:15 | 28.35889 | 88.05818 | 38010 ft | 468 kts | 44° |
| 2026-04-26 14:16 | 28.40368 | 88.11194 | 37972 ft | 469 kts | 43° |
| 2026-04-26 14:16 | 28.44854 | 88.16586 | 37932 ft | 467 kts | 44° |
| 2026-04-26 14:17 | 28.49340 | 88.21986 | 37924 ft | 467 kts | 44° |
| 2026-04-26 14:17 | 28.53836 | 88.27406 | 37926 ft | 469 kts | 44° |
| 2026-04-26 14:18 | 28.58322 | 88.32819 | 37932 ft | 465 kts | 44° |
| 2026-04-26 14:18 | 28.62753 | 88.38174 | 37892 ft | 467 kts | 44° |
| 2026-04-26 14:19 | 28.67214 | 88.43574 | 37889 ft | 465 kts | 44° |
| 2026-04-26 14:19 | 28.71633 | 88.48925 | 37861 ft | 465 kts | 44° |
| 2026-04-26 14:20 | 28.76089 | 88.54330 | 37857 ft | 466 kts | 44° |
| 2026-04-26 14:20 | 28.80533 | 88.59728 | 37860 ft | 466 kts | 44° |
| 2026-04-26 14:21 | 28.84935 | 88.65083 | 37850 ft | 464 kts | 44° |
| 2026-04-26 14:21 | 28.89377 | 88.70496 | 37794 ft | 466 kts | 44° |
| 2026-04-26 14:22 | 28.93737 | 88.75816 | 37575 ft | 466 kts | 44° |
| 2026-04-26 14:22 | 28.95954 | 88.78522 | 37284 ft | 462 kts | 45° |
| 2026-04-26 14:22 | 28.98134 | 88.81186 | 37004 ft | 459 kts | 45° |
| 2026-04-26 14:22 | 29.00208 | 88.83720 | 36729 ft | 459 kts | 45° |
| 2026-04-26 14:23 | 29.02396 | 88.86395 | 36454 ft | 459 kts | 45° |
| 2026-04-26 14:23 | 29.04563 | 88.89047 | 36180 ft | 460 kts | 45° |
| 2026-04-26 14:23 | 29.06736 | 88.91708 | 35892 ft | 460 kts | 45° |
| 2026-04-26 14:23 | 29.08929 | 88.94395 | 35617 ft | 459 kts | 45° |
| 2026-04-26 14:24 | 29.11116 | 88.97076 | 35341 ft | 458 kts | 46° |
| 2026-04-26 14:24 | 29.13298 | 88.99754 | 35048 ft | 459 kts | 46° |
| 2026-04-26 14:24 | 29.15467 | 89.02418 | 34774 ft | 460 kts | 46° |
| 2026-04-26 14:24 | 29.17626 | 89.05073 | 34495 ft | 459 kts | 46° |
| 2026-04-26 14:25 | 29.19826 | 89.07780 | 34208 ft | 458 kts | 46° |
| 2026-04-26 14:25 | 29.21996 | 89.10452 | 33932 ft | 459 kts | 46° |
| 2026-04-26 14:25 | 29.24165 | 89.13123 | 33651 ft | 457 kts | 46° |
| 2026-04-26 14:25 | 29.26317 | 89.15775 | 33365 ft | 454 kts | 46° |
| 2026-04-26 14:26 | 29.28441 | 89.18394 | 33090 ft | 450 kts | 46° |
| 2026-04-26 14:26 | 29.30555 | 89.21085 | 32820 ft | 449 kts | 50° |
| 2026-04-26 14:26 | 29.32369 | 89.23964 | 32559 ft | 449 kts | 58° |
| 2026-04-26 14:26 | 29.33759 | 89.27145 | 32290 ft | 448 kts | 68° |
| 2026-04-26 14:27 | 29.34666 | 89.30561 | 32030 ft | 448 kts | 77° |
| 2026-04-26 14:27 | 29.35193 | 89.34086 | 31761 ft | 447 kts | 83° |
| 2026-04-26 14:27 | 29.35393 | 89.37625 | 31500 ft | 444 kts | 88° |
| 2026-04-26 14:27 | 29.35379 | 89.41145 | 31238 ft | 444 kts | 91° |
| 2026-04-26 14:28 | 29.35267 | 89.44671 | 30973 ft | 442 kts | 92° |
| 2026-04-26 14:28 | 29.35121 | 89.48192 | 30712 ft | 440 kts | 92° |
| 2026-04-26 14:28 | 29.34970 | 89.51649 | 30451 ft | 438 kts | 92° |
| 2026-04-26 14:28 | 29.34821 | 89.55169 | 30187 ft | 439 kts | 92° |
| 2026-04-26 14:29 | 29.34684 | 89.58606 | 29925 ft | 436 kts | 92° |
| 2026-04-26 14:29 | 29.34556 | 89.62090 | 29665 ft | 435 kts | 92° |
| 2026-04-26 14:29 | 29.34436 | 89.65556 | 29402 ft | 432 kts | 92° |
| 2026-04-26 14:29 | 29.34322 | 89.68983 | 29137 ft | 431 kts | 92° |
| 2026-04-26 14:30 | 29.34210 | 89.72407 | 28879 ft | 430 kts | 92° |
| 2026-04-26 14:30 | 29.34099 | 89.75852 | 28622 ft | 431 kts | 92° |
| 2026-04-26 14:30 | 29.33991 | 89.79258 | 28366 ft | 429 kts | 92° |
| 2026-04-26 14:30 | 29.33884 | 89.82687 | 28106 ft | 427 kts | 92° |
| 2026-04-26 14:31 | 29.33779 | 89.86046 | 27854 ft | 425 kts | 92° |
| 2026-04-26 14:31 | 29.33671 | 89.89445 | 27599 ft | 422 kts | 92° |
| 2026-04-26 14:31 | 29.33564 | 89.92806 | 27347 ft | 422 kts | 91° |
| 2026-04-26 14:31 | 29.33458 | 89.96160 | 27087 ft | 422 kts | 91° |
| 2026-04-26 14:32 | 29.33351 | 89.99470 | 26835 ft | 419 kts | 91° |
| 2026-04-26 14:32 | 29.33242 | 90.02816 | 26579 ft | 420 kts | 92° |
| 2026-04-26 14:32 | 29.33129 | 90.06171 | 26314 ft | 416 kts | 92° |
| 2026-04-26 14:32 | 29.33019 | 90.09481 | 26061 ft | 414 kts | 91° |
| 2026-04-26 14:33 | 29.32912 | 90.12759 | 25809 ft | 416 kts | 91° |
| 2026-04-26 14:33 | 29.32774 | 90.16078 | 25552 ft | 416 kts | 93° |
| 2026-04-26 14:33 | 29.32489 | 90.19209 | 25311 ft | 412 kts | 98° |
| 2026-04-26 14:33 | 29.31911 | 90.22436 | 25055 ft | 410 kts | 104° |
| 2026-04-26 14:34 | 29.31147 | 90.25581 | 24803 ft | 409 kts | 107° |
| 2026-04-26 14:34 | 29.30300 | 90.28683 | 24558 ft | 410 kts | 108° |
| 2026-04-26 14:34 | 29.29426 | 90.31757 | 24306 ft | 407 kts | 108° |
| 2026-04-26 14:34 | 29.28540 | 90.34857 | 24053 ft | 407 kts | 108° |
| 2026-04-26 14:35 | 29.27661 | 90.37954 | 23800 ft | 406 kts | 108° |
| 2026-04-26 14:35 | 29.26800 | 90.41013 | 23558 ft | 406 kts | 107° |
| 2026-04-26 14:35 | 29.25939 | 90.44096 | 23305 ft | 404 kts | 107° |
| 2026-04-26 14:35 | 29.25090 | 90.47140 | 23052 ft | 403 kts | 107° |
| 2026-04-26 14:36 | 29.24235 | 90.50211 | 22797 ft | 400 kts | 107° |
| 2026-04-26 14:36 | 29.23400 | 90.53215 | 22567 ft | 401 kts | 107° |
| 2026-04-26 14:36 | 29.22549 | 90.56283 | 22340 ft | 398 kts | 107° |
| 2026-04-26 14:36 | 29.21713 | 90.59300 | 22116 ft | 395 kts | 107° |
| 2026-04-26 14:37 | 29.20893 | 90.62263 | 21904 ft | 395 kts | 107° |
| 2026-04-26 14:37 | 29.20060 | 90.65267 | 21697 ft | 395 kts | 108° |
| 2026-04-26 14:37 | 29.19227 | 90.68270 | 21491 ft | 389 kts | 108° |
| 2026-04-26 14:37 | 29.18428 | 90.71151 | 21353 ft | 377 kts | 108° |
| 2026-04-26 14:38 | 29.17638 | 90.73996 | 21255 ft | 364 kts | 108° |
| 2026-04-26 14:38 | 29.16881 | 90.76720 | 21114 ft | 354 kts | 107° |
| 2026-04-26 14:38 | 29.16269 | 90.79425 | 20760 ft | 351 kts | 99° |
| 2026-04-26 14:38 | 29.16126 | 90.81252 | 20463 ft | 351 kts | 88° |
| 2026-04-26 14:39 | 29.16729 | 90.84898 | 19911 ft | 348 kts | 68° |
| 2026-04-26 14:39 | 29.17721 | 90.87374 | 19735 ft | 337 kts | 59° |
| 2026-04-26 14:39 | 29.19005 | 90.89555 | 19487 ft | 329 kts | 46° |
| 2026-04-26 14:39 | 29.20719 | 90.91249 | 19065 ft | 327 kts | 30° |
| 2026-04-26 14:40 | 29.22749 | 90.92417 | 18641 ft | 325 kts | 19° |
| 2026-04-26 14:40 | 29.24895 | 90.93242 | 18226 ft | 323 kts | 15° |
| 2026-04-26 14:40 | 29.26600 | 90.93788 | 17899 ft | 322 kts | 12° |
| 2026-04-26 14:40 | 29.28777 | 90.94153 | 17534 ft | 317 kts | 360° |
| 2026-04-26 14:41 | 29.30929 | 90.93831 | 17409 ft | 302 kts | 339° |
| 2026-04-26 14:41 | 29.32752 | 90.92731 | 17340 ft | 287 kts | 321° |
| 2026-04-26 14:41 | 29.34191 | 90.91235 | 17268 ft | 274 kts | 312° |
| 2026-04-26 14:41 | 29.35439 | 90.89600 | 17188 ft | 270 kts | 309° |
| 2026-04-26 14:42 | 29.36605 | 90.87887 | 17095 ft | 273 kts | 302° |
| 2026-04-26 14:42 | 29.37467 | 90.85950 | 16697 ft | 276 kts | 287° |
| 2026-04-26 14:42 | 29.37629 | 90.83759 | 16245 ft | 276 kts | 265° |
| 2026-04-26 14:42 | 29.37326 | 90.81622 | 16131 ft | 264 kts | 258° |
| 2026-04-26 14:43 | 29.36917 | 90.79651 | 16129 ft | 247 kts | 256° |
| 2026-04-26 14:43 | 29.36454 | 90.77788 | 16031 ft | 246 kts | 251° |
| 2026-04-26 14:43 | 29.35643 | 90.76038 | 15653 ft | 249 kts | 226° |
| 2026-04-26 14:43 | 29.33617 | 90.74966 | 15131 ft | 247 kts | 179° |
| 2026-04-26 14:44 | 29.32493 | 90.75153 | 14730 ft | 250 kts | 158° |
| 2026-04-26 14:44 | 29.31050 | 90.76204 | 14418 ft | 237 kts | 133° |
| 2026-04-26 14:44 | 29.30104 | 90.77636 | 14174 ft | 226 kts | 112° |
| 2026-04-26 14:44 | 29.29830 | 90.79399 | 13583 ft | 227 kts | 86° |
| 2026-04-26 14:45 | 29.29956 | 90.81201 | 13088 ft | 225 kts | 84° |
| 2026-04-26 14:45 | 29.30031 | 90.82386 | 12812 ft | 217 kts | 86° |
| 2026-04-26 14:45 | 29.30088 | 90.84508 | 12573 ft | 184 kts | 89° |
| 2026-04-26 14:45 | 29.30056 | 90.86388 | 12189 ft | 169 kts | 87° |
| 2026-04-26 14:46 | 29.30085 | 90.87262 | 12023 ft | 165 kts | 86° |
| 2026-04-26 14:46 | 29.30108 | 90.88604 | 11923 ft | 169 kts | 88° |
| 2026-04-26 14:46 | 29.30130 | 90.89866 | 11884 ft | 133 kts | 89° |
| 2026-04-26 14:46 | 29.30141 | 90.90677 | 11883 ft | 73 kts | 89° |
| 2026-04-26 14:47 | 29.30148 | 90.91119 | 11883 ft | 49 kts | 89° |
| 2026-04-26 14:47 | 29.30137 | 90.91479 | 11882 ft | 39 kts | 103° |
| 2026-04-26 14:47 | 29.30075 | 90.91662 | 11881 ft | 14 kts | 120° |
| 2026-04-26 14:47 | 29.30025 | 90.91704 | 11882 ft | 6 kts | 191° |
| 2026-04-26 14:48 | 29.30002 | 90.91652 | 11883 ft | 9 kts | 262° |
| 2026-04-26 14:48 | 29.29999 | 90.91540 | 11883 ft | 17 kts | 268° |
| 2026-04-26 14:48 | 29.29994 | 90.91361 | 11884 ft | 26 kts | 267° |
| 2026-04-26 14:48 | 29.29992 | 90.91148 | 11884 ft | 26 kts | 269° |
| 2026-04-26 14:49 | 29.29989 | 90.90932 | 11885 ft | 26 kts | 268° |
| 2026-04-26 14:49 | 29.29986 | 90.90719 | 11885 ft | 16 kts | 269° |
| 2026-04-26 14:49 | 29.29983 | 90.90550 | 11885 ft | 25 kts | 270° |
| 2026-04-26 14:49 | 29.29979 | 90.90316 | 11886 ft | 33 kts | 269° |
| 2026-04-26 14:50 | 29.29976 | 90.90079 | 11886 ft | 30 kts | 269° |
| 2026-04-26 14:50 | 29.29973 | 90.89853 | 11887 ft | 28 kts | 270° |
| 2026-04-26 14:50 | 29.29969 | 90.89665 | 11887 ft | 15 kts | 267° |
| 2026-04-26 14:50 | 29.29968 | 90.89513 | 11887 ft | 22 kts | 269° |
| 2026-04-26 14:51 | 29.29965 | 90.89329 | 11887 ft | 21 kts | 268° |
| 2026-04-26 14:51 | 29.29953 | 90.89208 | 11887 ft | 12 kts | 231° |
| 2026-04-26 14:51 | 29.29844 | 90.89191 | 11887 ft | 20 kts | 179° |
| 2026-04-26 14:51 | 29.29719 | 90.89192 | 11887 ft | 21 kts | 178° |
| 2026-04-26 14:52 | 29.29572 | 90.89196 | 11886 ft | 15 kts | 179° |
| 2026-04-26 14:52 | 29.29474 | 90.89198 | 11885 ft | 11 kts | 181° |
| 2026-04-26 14:52 | 29.29400 | 90.89176 | 11884 ft | 7 kts | 197° |
| 2026-04-26 14:52 | 29.29362 | 90.89216 | 11883 ft | 6 kts | 105° |
| 2026-04-26 14:53 | 29.29352 | 90.89265 | 11883 ft | 2 kts | 104° |
| 2026-04-26 14:53 | 29.29350 | 90.89272 | 11882 ft | 0 kts | 104° |